aviador You're here:

KCEW Decoded Metar

CRESTVIEW in FL, USA
Report Time2017-06-25 19:53:00
UTC Time2017-06-25 20:47:08
Flight Rules vfr VFR
Wind340° at 11 kt
W.Decomp.*RWY 35: 10.8 kt HW 1.9 kt LCW
W.Rank340° ranks 1
Current wind is above 340° avg. (6.0)
Visibility9999 m
Phenomena:N/A
Clouds:N/A
Expected CloudBase > 3,600 ft AGL from Temp-Dew spread
CeilingNone
Temp31°C (ISA +16)
Dew Point22°C (59% RH)
Heat Index34.6°C
QNH1019 hPa
Density Alt2,198 ft
Elevation180 ft
Report Wrong Elevation
Raw Report
KCEW 251953Z AUTO 34011KT 10SM CLR 31/22 A3009 RMK AO2 LTG DSNT SE
SLP184 T03060222=

Extra information for KCEW:More info

Metar Taf Metar & Taf Last 4 Metars F.Rules Stats Wind Profile Meteogram Temp Stats Airport Information Weather charts Add Link Nearby VenuesMetar ALERT Operation Metar Decoded Social comments

AIRNAV info for KCEW